createdAt,value
2022-11-05T00:00:07.374Z,7.60
2022-11-05T00:01:07.356Z,7.20
2022-11-05T00:02:07.321Z,7.30
2022-11-05T00:03:07.498Z,7.80
2022-11-05T00:04:07.329Z,7.20
2022-11-05T00:05:07.314Z,7.60
2022-11-05T00:06:07.300Z,7.30
2022-11-05T00:07:07.267Z,7.40
2022-11-05T00:08:07.248Z,7.80
2022-11-05T00:09:07.274Z,7.50
2022-11-05T00:10:08.188Z,7.70
2022-11-05T00:11:07.218Z,6.90
2022-11-05T00:12:07.319Z,7.70
2022-11-05T00:13:07.334Z,7.50
2022-11-05T00:14:08.160Z,7.20
2022-11-05T00:15:07.200Z,7.60
2022-11-05T00:16:07.169Z,7.70
2022-11-05T00:17:07.149Z,7.60
2022-11-05T00:18:07.229Z,7.30
2022-11-05T00:19:07.127Z,7.20
2022-11-05T00:20:07.138Z,7.30
2022-11-05T00:21:07.104Z,7.40
2022-11-05T00:22:07.100Z,6.60
2022-11-05T00:23:07.100Z,7.30
2022-11-05T00:24:07.077Z,6.80
2022-11-05T00:25:07.141Z,7.40
2022-11-05T00:26:07.051Z,6.30
2022-11-05T00:27:07.060Z,6.60
2022-11-05T00:28:07.044Z,7.50
2022-11-05T00:29:07.026Z,7.00
2022-11-05T00:30:07.028Z,7.40
2022-11-05T00:31:06.989Z,7.40
2022-11-05T00:32:07.000Z,7.40
2022-11-05T00:33:07.003Z,7.70
2022-11-05T00:34:06.962Z,7.50
2022-11-05T00:35:06.977Z,7.90
2022-11-05T00:36:06.943Z,7.70
2022-11-05T00:37:06.925Z,7.70
2022-11-05T00:38:06.934Z,7.90
2022-11-05T00:39:06.920Z,7.00
2022-11-05T00:40:07.889Z,7.50
2022-11-05T00:41:06.883Z,7.50
2022-11-05T00:42:06.877Z,7.80
2022-11-05T00:43:06.866Z,7.00
2022-11-05T00:44:06.851Z,7.30
2022-11-05T00:45:06.837Z,7.30
2022-11-05T00:46:06.888Z,7.80
2022-11-05T00:47:06.816Z,7.70
2022-11-05T00:48:06.825Z,7.30
2022-11-05T00:49:06.857Z,7.70
2022-11-05T00:50:06.780Z,7.60
2022-11-05T00:51:06.784Z,7.50
2022-11-05T00:52:06.776Z,7.60
2022-11-05T00:53:06.747Z,7.40
2022-11-05T00:54:06.783Z,7.60
2022-11-05T00:55:06.723Z,7.40
2022-11-05T00:56:06.835Z,7.90
2022-11-05T00:57:06.730Z,6.90
2022-11-05T00:58:06.827Z,7.80
2022-11-05T00:59:06.696Z,7.40
2022-11-05T01:00:06.707Z,7.70
2022-11-05T01:01:06.720Z,7.90
2022-11-05T01:02:06.764Z,8.30
2022-11-05T01:03:06.650Z,7.70
2022-11-05T01:04:06.632Z,8.00
2022-11-05T01:05:06.629Z,8.10
2022-11-05T01:06:06.646Z,7.20
2022-11-05T01:07:06.602Z,8.20
2022-11-05T01:08:06.612Z,8.00
2022-11-05T01:09:06.624Z,7.20
2022-11-05T01:10:06.565Z,7.80
2022-11-05T01:11:06.547Z,7.80
2022-11-05T01:12:06.591Z,7.80
2022-11-05T01:13:11.669Z,8.50
2022-11-05T01:14:07.776Z,8.20
2022-11-05T01:15:06.505Z,7.90
2022-11-05T01:16:06.491Z,7.90
2022-11-05T01:17:06.484Z,7.30
2022-11-05T01:18:06.492Z,8.20
2022-11-05T01:19:06.472Z,7.20
2022-11-05T01:20:06.461Z,7.30
2022-11-05T01:21:06.434Z,7.70
2022-11-05T01:22:06.469Z,7.30
2022-11-05T01:23:11.947Z,7.70
2022-11-05T01:24:07.448Z,7.10
2022-11-05T01:25:06.394Z,7.60
2022-11-05T01:26:06.394Z,7.70
2022-11-05T01:27:06.364Z,7.60
2022-11-05T01:28:06.355Z,7.50
2022-11-05T01:29:06.428Z,8.00
2022-11-05T01:30:06.374Z,7.60
2022-11-05T01:31:06.325Z,7.40
2022-11-05T01:32:06.329Z,7.60
2022-11-05T01:33:06.303Z,7.50
2022-11-05T01:34:06.287Z,7.80
2022-11-05T01:35:06.292Z,7.80
2022-11-05T01:36:06.319Z,6.70
2022-11-05T01:37:06.265Z,7.90
2022-11-05T01:38:06.256Z,7.90
2022-11-05T01:39:06.681Z,7.80
2022-11-05T01:40:06.227Z,8.10
2022-11-05T01:41:06.212Z,7.40
2022-11-05T01:42:06.228Z,7.80
2022-11-05T01:43:06.236Z,8.40
2022-11-05T01:44:06.183Z,7.90
2022-11-05T01:45:06.159Z,7.90
2022-11-05T01:46:06.163Z,7.80
2022-11-05T01:47:06.154Z,7.60
2022-11-05T01:48:06.169Z,8.30
2022-11-05T01:49:06.114Z,7.80
2022-11-05T01:50:06.121Z,8.60
2022-11-05T01:51:06.110Z,7.80
2022-11-05T01:52:06.101Z,7.40
2022-11-05T01:53:06.106Z,8.20
2022-11-05T01:54:06.092Z,8.40
2022-11-05T01:55:06.097Z,8.00
2022-11-05T01:56:06.050Z,8.10
2022-11-05T01:57:06.109Z,8.10
2022-11-05T01:58:06.021Z,7.70
2022-11-05T01:59:06.981Z,8.30
2022-11-05T02:00:06.033Z,8.60
2022-11-05T02:01:06.025Z,8.50
2022-11-05T02:02:06.081Z,7.90
2022-11-05T02:03:06.073Z,8.50
2022-11-05T02:04:05.991Z,8.10
2022-11-05T02:05:06.030Z,8.60
2022-11-05T02:06:05.941Z,8.70
2022-11-05T02:07:05.922Z,7.60
2022-11-05T02:08:05.913Z,7.70
2022-11-05T02:09:05.902Z,8.00
2022-11-05T02:10:05.928Z,7.80
2022-11-05T02:11:05.903Z,7.50
2022-11-05T02:12:05.870Z,7.80
2022-11-05T02:13:05.867Z,7.90
2022-11-05T02:14:05.836Z,8.40
2022-11-05T02:15:05.883Z,7.80
2022-11-05T02:16:05.821Z,7.60
2022-11-05T02:17:05.829Z,8.70
2022-11-05T02:18:05.795Z,7.70
2022-11-05T02:19:05.808Z,7.70
2022-11-05T02:20:05.774Z,7.60
2022-11-05T02:21:05.813Z,8.20
2022-11-05T02:22:05.772Z,8.40
2022-11-05T02:23:05.807Z,8.00
2022-11-05T02:24:05.727Z,8.10
2022-11-05T02:25:05.717Z,7.60
2022-11-05T02:26:05.798Z,8.20
2022-11-05T02:27:05.808Z,8.10
2022-11-05T02:28:05.689Z,7.40
2022-11-05T02:29:05.687Z,7.80
2022-11-05T02:30:05.659Z,7.60
2022-11-05T02:31:05.816Z,7.50
2022-11-05T02:32:06.609Z,7.60
2022-11-05T02:33:05.637Z,6.60
2022-11-05T02:34:05.646Z,8.00
2022-11-05T02:35:05.620Z,7.70
2022-11-05T02:36:05.600Z,7.10
2022-11-05T02:37:05.584Z,8.30
2022-11-05T02:38:05.580Z,8.20
2022-11-05T02:39:06.493Z,7.40
2022-11-05T02:40:05.560Z,7.60
2022-11-05T02:41:05.557Z,7.80
2022-11-05T02:42:05.526Z,8.00
2022-11-05T02:43:05.573Z,7.70
2022-11-05T02:44:05.510Z,7.60
2022-11-05T02:45:05.535Z,7.60
2022-11-05T02:46:05.501Z,8.00
2022-11-05T02:47:05.486Z,7.30
2022-11-05T02:48:05.457Z,7.90
2022-11-05T02:49:05.441Z,7.80
2022-11-05T02:50:06.422Z,7.30
2022-11-05T02:51:05.429Z,7.60
2022-11-05T02:52:05.413Z,7.20
2022-11-05T02:53:05.416Z,7.70
2022-11-05T02:54:05.392Z,7.50
2022-11-05T02:55:05.526Z,7.70
2022-11-05T02:56:05.364Z,7.80
2022-11-05T02:57:05.363Z,8.10
2022-11-05T02:58:05.357Z,7.80
2022-11-05T02:59:05.348Z,7.40
2022-11-05T03:00:05.527Z,7.90
2022-11-05T03:01:05.319Z,7.30
2022-11-05T03:02:05.430Z,7.60
2022-11-05T03:03:05.376Z,7.00
2022-11-05T03:04:05.309Z,7.60
2022-11-05T03:05:05.320Z,8.10
2022-11-05T03:06:05.301Z,7.70
2022-11-05T03:07:05.259Z,8.30
2022-11-05T03:08:05.264Z,7.40
2022-11-05T03:09:05.286Z,7.80
2022-11-05T03:10:05.220Z,7.30
2022-11-05T03:11:05.210Z,7.50
2022-11-05T03:12:05.215Z,8.30
2022-11-05T03:13:05.197Z,7.80
2022-11-05T03:14:05.166Z,7.40
2022-11-05T03:15:05.521Z,8.00
2022-11-05T03:16:05.180Z,7.90
2022-11-05T03:17:05.139Z,7.80
2022-11-05T03:18:05.134Z,8.40
2022-11-05T03:19:05.134Z,8.10
2022-11-05T03:20:05.097Z,8.30
2022-11-05T03:21:05.764Z,8.50
2022-11-05T03:22:05.083Z,8.50
2022-11-05T03:23:05.225Z,8.00
2022-11-05T03:24:05.092Z,7.70
2022-11-05T03:25:05.061Z,8.30
2022-11-05T03:26:05.038Z,8.00
2022-11-05T03:27:05.060Z,8.80
2022-11-05T03:28:05.025Z,8.10
2022-11-05T03:29:05.006Z,8.20
2022-11-05T03:30:04.986Z,8.20
2022-11-05T03:31:05.040Z,8.00
2022-11-05T03:32:04.969Z,8.00
2022-11-05T03:33:04.980Z,8.00
2022-11-05T03:34:04.948Z,7.80
2022-11-05T03:35:04.944Z,8.00
2022-11-05T03:36:04.931Z,8.80
2022-11-05T03:37:04.950Z,8.20
2022-11-05T03:38:04.906Z,7.90
2022-11-05T03:39:04.894Z,8.20
2022-11-05T03:40:08.668Z,7.90
2022-11-05T03:41:04.883Z,7.40
2022-11-05T03:42:04.866Z,8.20
2022-11-05T03:43:04.907Z,8.00
2022-11-05T03:44:04.844Z,8.00
2022-11-05T03:45:04.834Z,7.80
2022-11-05T03:46:04.815Z,8.10
2022-11-05T03:47:04.801Z,8.50
2022-11-05T03:48:04.805Z,8.20
2022-11-05T03:49:05.503Z,8.00
2022-11-05T03:50:04.773Z,8.00
2022-11-05T03:51:04.774Z,8.40
2022-11-05T03:52:04.742Z,7.60
2022-11-05T03:53:04.745Z,7.90
2022-11-05T03:54:04.745Z,8.40
2022-11-05T03:55:05.800Z,6.90
2022-11-05T03:56:04.724Z,8.00
2022-11-05T03:57:04.712Z,8.10
2022-11-05T03:58:04.681Z,7.90
2022-11-05T03:59:04.687Z,8.30
2022-11-05T04:00:04.720Z,7.20
2022-11-05T04:01:04.657Z,8.30
2022-11-05T04:02:04.700Z,8.00
2022-11-05T04:03:04.747Z,8.40
2022-11-05T04:04:04.646Z,7.70
2022-11-05T04:05:04.667Z,8.20
2022-11-05T04:06:04.596Z,8.20
2022-11-05T04:07:04.597Z,8.00
2022-11-05T04:08:06.005Z,7.90
2022-11-05T04:09:04.605Z,7.80
2022-11-05T04:10:04.547Z,7.50
2022-11-05T04:11:05.438Z,8.10
2022-11-05T04:12:04.534Z,7.70
2022-11-05T04:13:04.593Z,8.00
2022-11-05T04:14:04.492Z,7.70
2022-11-05T04:15:04.533Z,7.10
2022-11-05T04:16:04.477Z,7.50
2022-11-05T04:17:04.471Z,7.40
2022-11-05T04:18:04.634Z,8.00
2022-11-05T04:19:04.449Z,7.30
2022-11-05T04:20:04.464Z,7.30
2022-11-05T04:21:04.435Z,7.50
2022-11-05T04:22:04.422Z,7.50
2022-11-05T04:23:04.398Z,7.40
2022-11-05T04:24:04.431Z,7.30
2022-11-05T04:25:04.395Z,7.80
2022-11-05T04:26:04.366Z,7.40
2022-11-05T04:27:04.372Z,8.40
2022-11-05T04:28:04.357Z,8.20
2022-11-05T04:29:07.904Z,8.50
2022-11-05T04:30:04.331Z,7.80
2022-11-05T04:31:04.318Z,8.30
2022-11-05T04:32:04.302Z,8.10
2022-11-05T04:33:04.288Z,8.30
2022-11-05T04:34:04.282Z,8.30
2022-11-05T04:35:04.311Z,8.80
2022-11-05T04:36:04.253Z,8.70
2022-11-05T04:37:04.247Z,8.80
2022-11-05T04:38:04.226Z,8.90
2022-11-05T04:39:04.242Z,8.90
2022-11-05T04:40:04.211Z,8.20
2022-11-05T04:41:04.235Z,8.70
2022-11-05T04:42:04.185Z,8.50
2022-11-05T04:43:04.188Z,8.70
2022-11-05T04:44:04.203Z,9.40
2022-11-05T04:45:04.169Z,9.40
2022-11-05T04:46:04.142Z,9.70
2022-11-05T04:47:04.127Z,9.50
2022-11-05T04:48:04.112Z,9.80
2022-11-05T04:49:04.120Z,10.00
2022-11-05T04:50:04.132Z,10.50
2022-11-05T04:51:04.151Z,10.40
2022-11-05T04:52:04.088Z,9.80
2022-11-05T04:53:04.073Z,10.10
2022-11-05T04:54:04.047Z,10.60
2022-11-05T04:55:04.057Z,10.60
2022-11-05T04:56:04.027Z,10.50
2022-11-05T04:57:04.053Z,10.50
2022-11-05T04:58:03.997Z,10.20
2022-11-05T04:59:04.036Z,10.50
2022-11-05T05:00:03.991Z,10.60
2022-11-05T05:01:04.046Z,10.40
2022-11-05T05:02:04.181Z,11.10
2022-11-05T05:03:03.959Z,10.70
2022-11-05T05:04:03.928Z,10.40
2022-11-05T05:05:03.937Z,10.30
2022-11-05T05:06:04.308Z,10.80
2022-11-05T05:07:03.919Z,10.30
2022-11-05T05:08:03.908Z,9.80
2022-11-05T05:09:03.895Z,10.70
2022-11-05T05:10:03.867Z,10.50
2022-11-05T05:11:03.849Z,10.40
2022-11-05T05:12:03.867Z,10.60
2022-11-05T05:13:03.849Z,10.30
2022-11-05T05:14:03.860Z,10.10
2022-11-05T05:15:03.832Z,10.10
2022-11-05T05:16:03.809Z,10.40
2022-11-05T05:17:03.810Z,9.60
2022-11-05T05:18:03.771Z,10.50
2022-11-05T05:19:03.775Z,10.90
2022-11-05T05:20:03.781Z,10.00
2022-11-05T05:21:04.051Z,10.30
2022-11-05T05:22:03.754Z,10.70
2022-11-05T05:23:03.730Z,9.90
2022-11-05T05:24:03.806Z,10.10
2022-11-05T05:25:04.661Z,9.50
2022-11-05T05:26:03.683Z,9.60
2022-11-05T05:27:03.683Z,10.10
2022-11-05T05:28:03.689Z,10.70
2022-11-05T05:29:03.849Z,10.60
2022-11-05T05:30:03.654Z,10.60
2022-11-05T05:31:03.659Z,10.20
2022-11-05T05:32:03.858Z,10.70
2022-11-05T05:33:03.636Z,10.10
2022-11-05T05:34:03.637Z,10.90
2022-11-05T05:35:03.592Z,10.20
2022-11-05T05:36:08.426Z,10.60
2022-11-05T05:37:04.583Z,8.90
2022-11-05T05:38:03.735Z,9.00
2022-11-05T05:39:03.543Z,9.90
2022-11-05T05:40:03.549Z,9.50
2022-11-05T05:41:03.745Z,9.70
2022-11-05T05:42:03.549Z,9.90
2022-11-05T05:43:03.503Z,9.20
2022-11-05T05:44:03.498Z,9.60
2022-11-05T05:45:04.446Z,9.40
2022-11-05T05:46:03.682Z,9.80
2022-11-05T05:47:04.920Z,10.30
2022-11-05T05:48:03.439Z,10.20
2022-11-05T05:49:06.671Z,10.40
2022-11-05T05:50:04.424Z,9.80
2022-11-05T05:51:03.411Z,10.10
2022-11-05T05:52:03.427Z,10.50
2022-11-05T05:53:03.382Z,9.90
2022-11-05T05:54:03.367Z,10.60
2022-11-05T05:55:03.362Z,10.20
2022-11-05T05:56:03.482Z,9.90
2022-11-05T05:57:03.558Z,10.30
2022-11-05T05:58:03.360Z,10.60
2022-11-05T05:59:03.336Z,10.20
2022-11-05T06:00:03.324Z,11.00
2022-11-05T06:01:03.308Z,7.60
2022-11-05T06:02:03.496Z,10.30
2022-11-05T06:03:03.561Z,9.80
2022-11-05T06:04:03.297Z,10.50
2022-11-05T06:05:03.262Z,10.20
2022-11-05T06:06:03.245Z,10.40
2022-11-05T06:07:03.251Z,10.70
2022-11-05T06:08:03.213Z,10.00
2022-11-05T06:09:03.220Z,10.70
2022-11-05T06:10:03.208Z,10.80
2022-11-05T06:11:03.261Z,10.40
2022-11-05T06:12:03.187Z,10.30
2022-11-05T06:13:03.152Z,11.10
2022-11-05T06:14:03.153Z,10.70
2022-11-05T06:15:03.150Z,11.30
2022-11-05T06:16:03.143Z,10.90
2022-11-05T06:17:03.110Z,10.00
2022-11-05T06:18:03.106Z,11.10
2022-11-05T06:19:03.095Z,10.10
2022-11-05T06:20:03.102Z,10.80
2022-11-05T06:21:03.095Z,10.50
2022-11-05T06:22:03.082Z,11.30
2022-11-05T06:23:03.117Z,11.20
2022-11-05T06:24:03.118Z,10.70
2022-11-05T06:25:03.059Z,10.80
2022-11-05T06:26:03.019Z,11.20
2022-11-05T06:27:03.037Z,10.90
2022-11-05T06:28:02.985Z,11.50
2022-11-05T06:29:03.684Z,11.40
2022-11-05T06:30:03.163Z,12.00
2022-11-05T06:31:03.273Z,11.40
2022-11-05T06:32:02.937Z,10.90
2022-11-05T06:33:02.964Z,11.40
2022-11-05T06:34:03.014Z,12.20
2022-11-05T06:35:02.908Z,10.90
2022-11-05T06:36:02.901Z,11.50
2022-11-05T06:37:02.888Z,11.70
2022-11-05T06:38:02.891Z,11.60
2022-11-05T06:39:02.855Z,12.00
2022-11-05T06:40:02.876Z,12.30
2022-11-05T06:41:07.158Z,12.00
2022-11-05T06:42:17.964Z,12.10
2022-11-05T06:43:03.924Z,12.30
2022-11-05T06:44:02.843Z,11.90
2022-11-05T06:45:02.796Z,12.50
2022-11-05T06:46:02.780Z,12.00
2022-11-05T06:47:02.787Z,11.90
2022-11-05T06:48:02.759Z,11.60
2022-11-05T06:49:02.763Z,12.40
2022-11-05T06:50:02.729Z,13.10
2022-11-05T06:51:02.761Z,12.50
2022-11-05T06:52:02.739Z,12.70
2022-11-05T06:53:02.700Z,13.90
2022-11-05T06:54:02.717Z,13.30
2022-11-05T06:55:02.686Z,13.40
2022-11-05T06:56:02.669Z,12.60
2022-11-05T06:57:02.656Z,12.80
2022-11-05T06:58:02.672Z,14.60
2022-11-05T06:59:02.622Z,13.40
2022-11-05T07:00:07.626Z,13.20
2022-11-05T07:01:03.661Z,14.00
2022-11-05T07:02:02.678Z,13.50
2022-11-05T07:03:02.609Z,13.40
2022-11-05T07:04:02.634Z,13.20
2022-11-05T07:05:02.583Z,13.40
2022-11-05T07:06:02.555Z,14.10
2022-11-05T07:07:02.540Z,13.70
2022-11-05T07:08:02.541Z,13.60
2022-11-05T07:09:02.536Z,15.50
2022-11-05T07:10:02.531Z,14.10
2022-11-05T07:11:02.492Z,13.60
2022-11-05T07:12:02.482Z,13.10
2022-11-05T07:13:06.734Z,13.80
2022-11-05T07:14:03.836Z,13.70
2022-11-05T07:15:02.471Z,14.60
2022-11-05T07:16:02.604Z,13.60
2022-11-05T07:17:03.400Z,14.00
2022-11-05T07:18:02.414Z,13.70
2022-11-05T07:19:02.926Z,14.30
2022-11-05T07:20:02.404Z,14.80
2022-11-05T07:21:02.382Z,14.50
2022-11-05T07:22:02.365Z,15.30
2022-11-05T07:23:02.407Z,14.80
2022-11-05T07:24:02.356Z,14.30
2022-11-05T07:25:02.336Z,15.30
2022-11-05T07:26:02.352Z,14.80
2022-11-05T07:27:02.314Z,14.40
2022-11-05T07:28:02.330Z,15.10
2022-11-05T07:29:02.332Z,14.30
2022-11-05T07:30:02.286Z,14.90
2022-11-05T07:31:02.266Z,15.10
2022-11-05T07:32:02.263Z,14.90
2022-11-05T07:33:02.249Z,14.00
2022-11-05T07:34:02.283Z,13.80
2022-11-05T07:35:02.223Z,15.40
2022-11-05T07:36:02.226Z,14.40
2022-11-05T07:37:02.200Z,15.70
2022-11-05T07:38:02.194Z,14.20
2022-11-05T07:39:02.181Z,14.70
2022-11-05T07:40:02.194Z,14.30
2022-11-05T07:41:02.191Z,14.50
2022-11-05T07:42:02.140Z,14.80
2022-11-05T07:43:02.216Z,14.80
2022-11-05T07:44:02.121Z,14.00
2022-11-05T07:45:02.112Z,14.60
2022-11-05T07:46:02.102Z,15.50
2022-11-05T07:47:02.101Z,14.50
2022-11-05T07:48:02.085Z,14.80
2022-11-05T07:49:02.074Z,14.70
2022-11-05T07:50:02.073Z,14.60
2022-11-05T07:51:02.093Z,13.80
2022-11-05T07:52:02.044Z,14.80
2022-11-05T07:53:02.101Z,14.10
2022-11-05T07:54:02.042Z,13.90
2022-11-05T07:55:02.016Z,14.70
2022-11-05T07:56:02.005Z,13.20
2022-11-05T07:57:02.346Z,13.80
2022-11-05T07:58:01.971Z,13.80
2022-11-05T07:59:01.962Z,13.60
2022-11-05T08:00:02.000Z,13.60
2022-11-05T08:01:02.098Z,12.40
2022-11-05T08:02:02.189Z,13.80
2022-11-05T08:03:07.269Z,13.60
2022-11-05T08:04:02.923Z,13.20
2022-11-05T08:05:01.910Z,13.00
2022-11-05T08:06:01.927Z,10.50
2022-11-05T08:07:01.857Z,12.80
2022-11-05T08:08:01.854Z,12.20
2022-11-05T08:09:01.863Z,12.00
2022-11-05T08:10:01.864Z,11.70
2022-11-05T08:11:01.846Z,11.90
2022-11-05T08:12:03.398Z,12.70
2022-11-05T08:13:01.808Z,12.40
2022-11-05T08:14:01.796Z,13.00
2022-11-05T08:15:01.799Z,11.70
2022-11-05T08:16:01.797Z,13.30
2022-11-05T08:17:01.757Z,11.80
2022-11-05T08:18:01.739Z,11.40
2022-11-05T08:19:01.730Z,11.90
2022-11-05T08:20:01.725Z,12.10
2022-11-05T08:21:02.658Z,11.70
2022-11-05T08:22:01.749Z,10.30
2022-11-05T08:23:01.715Z,11.00
2022-11-05T08:24:01.675Z,11.40
2022-11-05T08:25:06.637Z,11.60
2022-11-05T08:26:02.648Z,10.90
2022-11-05T08:27:01.649Z,11.40
2022-11-05T08:28:01.648Z,10.80
2022-11-05T08:29:01.607Z,10.70
2022-11-05T08:30:01.604Z,10.70
2022-11-05T08:31:01.588Z,10.10
2022-11-05T08:32:01.578Z,10.80
2022-11-05T08:33:01.596Z,10.50
2022-11-05T08:34:02.782Z,11.00
2022-11-05T08:35:01.552Z,11.10
2022-11-05T08:36:01.537Z,10.20
2022-11-05T08:37:01.521Z,9.60
2022-11-05T08:38:01.535Z,9.20
2022-11-05T08:39:01.504Z,10.20
2022-11-05T08:40:01.549Z,9.90
2022-11-05T08:41:01.499Z,10.00
2022-11-05T08:42:01.466Z,10.10
2022-11-05T08:43:01.462Z,9.80
2022-11-05T08:44:01.457Z,10.10
2022-11-05T08:45:01.441Z,9.50
2022-11-05T08:46:01.448Z,9.10
2022-11-05T08:47:01.424Z,9.90
2022-11-05T08:48:01.405Z,8.70
2022-11-05T08:49:01.403Z,8.50
2022-11-05T08:50:01.406Z,9.50
2022-11-05T08:51:02.299Z,8.50
2022-11-05T08:52:01.626Z,8.80
2022-11-05T08:53:01.346Z,8.80
2022-11-05T08:54:01.333Z,8.70
2022-11-05T08:55:01.320Z,8.30
2022-11-05T08:56:01.345Z,8.40
2022-11-05T08:57:01.295Z,8.30
2022-11-05T08:58:01.309Z,8.90
2022-11-05T08:59:01.271Z,8.70
2022-11-05T09:00:01.266Z,8.70
2022-11-05T09:01:04.996Z,8.30
2022-11-05T09:02:01.403Z,8.60
2022-11-05T09:03:01.486Z,8.50
2022-11-05T09:04:01.265Z,8.60
2022-11-05T09:05:01.207Z,8.20
2022-11-05T09:06:01.206Z,8.10
2022-11-05T09:07:01.188Z,8.40
2022-11-05T09:08:01.770Z,8.20
2022-11-05T09:09:01.169Z,8.30
2022-11-05T09:10:01.161Z,7.50
2022-11-05T09:11:01.143Z,7.80
2022-11-05T09:12:16.391Z,7.70
2022-11-05T09:13:02.145Z,7.90
2022-11-05T09:14:01.117Z,7.20
2022-11-05T09:15:01.112Z,7.90
2022-11-05T09:16:01.131Z,7.40
2022-11-05T09:17:01.470Z,8.10
2022-11-05T09:18:01.115Z,7.50
2022-11-05T09:19:01.073Z,7.70
2022-11-05T09:20:01.090Z,7.60
2022-11-05T09:21:01.062Z,7.60
2022-11-05T09:22:01.114Z,8.00
2022-11-05T09:23:01.027Z,7.50
2022-11-05T09:24:01.960Z,7.80
2022-11-05T09:25:00.995Z,7.40
2022-11-05T09:26:00.998Z,7.20
2022-11-05T09:27:00.995Z,8.40
2022-11-05T09:28:00.987Z,7.90
2022-11-05T09:29:00.976Z,7.30
2022-11-05T09:30:00.934Z,8.20
2022-11-05T09:31:01.009Z,7.30
2022-11-05T09:32:00.913Z,8.00
2022-11-05T09:33:00.932Z,8.00
2022-11-05T09:34:01.019Z,7.70
2022-11-05T09:35:01.068Z,7.10
2022-11-05T09:36:00.862Z,7.20
2022-11-05T09:37:00.897Z,7.70
2022-11-05T09:38:01.371Z,7.20
2022-11-05T09:39:00.834Z,7.40
2022-11-05T09:40:00.825Z,7.50
2022-11-05T09:41:00.815Z,6.90
2022-11-05T09:42:01.380Z,7.00
2022-11-05T09:43:00.807Z,7.70
2022-11-05T09:44:00.829Z,7.20
2022-11-05T09:45:01.624Z,6.90
2022-11-05T09:46:00.765Z,7.20
2022-11-05T09:47:00.736Z,7.20
2022-11-05T09:48:00.771Z,6.70
2022-11-05T09:49:02.184Z,6.90
2022-11-05T09:50:00.708Z,7.30
2022-11-05T09:51:01.682Z,7.60
2022-11-05T09:52:00.695Z,6.80
2022-11-05T09:53:00.688Z,6.70
2022-11-05T09:54:00.702Z,6.40
2022-11-05T09:55:01.268Z,6.60
2022-11-05T09:56:00.673Z,6.20
2022-11-05T09:57:00.629Z,6.40
2022-11-05T09:58:02.101Z,6.90
2022-11-05T09:59:01.418Z,6.40
2022-11-05T10:00:00.617Z,7.00
2022-11-05T10:01:00.706Z,6.30
2022-11-05T10:02:00.700Z,6.60
2022-11-05T10:03:01.519Z,6.40
2022-11-05T10:04:00.555Z,6.90
2022-11-05T10:05:06.391Z,6.60
2022-11-05T10:06:01.521Z,6.70
2022-11-05T10:07:00.611Z,6.50
2022-11-05T10:08:00.510Z,6.40
2022-11-05T10:09:00.524Z,6.10
2022-11-05T10:10:00.951Z,6.20
2022-11-05T10:11:00.491Z,6.20
2022-11-05T10:12:00.484Z,6.30
2022-11-05T10:13:00.496Z,5.80
2022-11-05T10:14:00.443Z,6.20
2022-11-05T10:15:00.431Z,6.60
2022-11-05T10:16:00.438Z,6.20
2022-11-05T10:17:00.412Z,6.30
2022-11-05T10:18:00.411Z,6.10
2022-11-05T10:19:01.852Z,6.50
2022-11-05T10:20:00.376Z,6.70
2022-11-05T10:21:00.386Z,6.10
2022-11-05T10:22:08.379Z,6.20
2022-11-05T10:23:01.351Z,6.30
2022-11-05T10:24:02.785Z,6.00
2022-11-05T10:25:00.356Z,5.70
2022-11-05T10:26:00.306Z,6.00
2022-11-05T10:27:00.317Z,6.30
2022-11-05T10:28:00.282Z,5.80
2022-11-05T10:29:00.710Z,6.40
2022-11-05T10:30:01.720Z,5.80
2022-11-05T10:31:01.049Z,6.60
2022-11-05T10:32:01.711Z,6.10
2022-11-05T10:33:00.246Z,6.10
2022-11-05T10:34:00.226Z,6.00
2022-11-05T10:35:00.248Z,5.60
2022-11-05T10:36:01.645Z,5.90
2022-11-05T10:37:00.927Z,6.00
2022-11-05T10:38:00.190Z,6.20
2022-11-05T10:39:00.170Z,6.10
2022-11-05T10:40:00.143Z,6.20
2022-11-05T10:41:00.202Z,6.20
2022-11-05T10:42:00.144Z,6.20
2022-11-05T10:43:00.161Z,6.10
2022-11-05T10:44:01.069Z,5.60
2022-11-05T10:45:00.134Z,6.20
2022-11-05T10:46:00.094Z,5.90
2022-11-05T10:47:00.105Z,6.10
2022-11-05T10:48:00.069Z,5.70
2022-11-05T10:49:00.061Z,6.00
2022-11-05T10:50:00.060Z,5.60
2022-11-05T10:51:00.056Z,5.10
2022-11-05T10:52:00.040Z,5.50
2022-11-05T10:53:00.034Z,5.50
2022-11-05T10:54:02.161Z,6.10
2022-11-05T10:55:00.083Z,6.20
2022-11-05T10:55:59.972Z,5.90
2022-11-05T10:57:00.047Z,5.50
2022-11-05T10:57:59.943Z,5.80
2022-11-05T10:58:59.976Z,6.30
2022-11-05T11:00:00.512Z,5.70
2022-11-05T11:01:00.031Z,5.40
2022-11-05T11:02:00.347Z,5.40
2022-11-05T11:02:59.950Z,5.70
2022-11-05T11:04:00.654Z,5.70
2022-11-05T11:04:59.955Z,6.00
2022-11-05T11:05:59.881Z,5.60
2022-11-05T11:06:59.898Z,5.50
2022-11-05T11:07:59.934Z,5.40
2022-11-05T11:08:59.858Z,5.30
2022-11-05T11:09:59.863Z,5.90
2022-11-05T11:10:59.819Z,5.60
2022-11-05T11:11:59.787Z,5.40
2022-11-05T11:12:59.778Z,5.20
2022-11-05T11:13:59.803Z,5.30
2022-11-05T11:14:59.801Z,5.60
2022-11-05T11:15:59.771Z,5.70
2022-11-05T11:16:59.761Z,5.40
2022-11-05T11:17:59.938Z,5.40
2022-11-05T11:18:59.718Z,5.50
2022-11-05T11:19:59.701Z,5.80
2022-11-05T11:20:59.718Z,5.20
2022-11-05T11:22:00.640Z,5.30
2022-11-05T11:22:59.691Z,5.10
2022-11-05T11:23:59.652Z,5.20
2022-11-05T11:24:59.670Z,5.80
2022-11-05T11:25:59.662Z,5.50
2022-11-05T11:26:59.621Z,5.50
2022-11-05T11:28:00.514Z,5.60
2022-11-05T11:28:59.594Z,5.20
2022-11-05T11:30:00.132Z,5.10
2022-11-05T11:30:59.613Z,4.70
2022-11-05T11:32:00.538Z,4.70
2022-11-05T11:32:59.561Z,5.00
2022-11-05T11:33:59.557Z,4.90
2022-11-05T11:34:59.542Z,5.00
2022-11-05T11:35:59.523Z,4.70
2022-11-05T11:36:59.710Z,5.60
2022-11-05T11:37:59.517Z,4.90
2022-11-05T11:38:59.533Z,4.90
2022-11-05T11:39:59.624Z,4.90
2022-11-05T11:40:59.476Z,4.60
2022-11-05T11:41:59.579Z,4.70
2022-11-05T11:42:59.478Z,4.60
2022-11-05T11:43:59.548Z,4.60
2022-11-05T11:44:59.428Z,4.60
2022-11-05T11:46:04.909Z,4.60
2022-11-05T11:47:00.672Z,4.70
2022-11-05T11:47:59.461Z,4.60
2022-11-05T11:48:59.382Z,4.30
2022-11-05T11:49:59.386Z,4.40
2022-11-05T11:51:01.593Z,3.90
2022-11-05T11:51:59.388Z,4.10
2022-11-05T11:52:59.341Z,3.80
2022-11-05T11:53:59.319Z,3.50
2022-11-05T11:54:59.316Z,3.50
2022-11-05T11:55:59.329Z,3.40
2022-11-05T11:56:59.279Z,3.70
2022-11-05T11:57:59.524Z,3.40
2022-11-05T11:58:59.395Z,3.20
2022-11-05T12:00:08.294Z,3.50
2022-11-05T12:01:00.311Z,3.50
2022-11-05T12:01:59.793Z,3.50
2022-11-05T12:03:02.162Z,3.50
2022-11-05T12:03:59.212Z,3.50
2022-11-05T12:04:59.226Z,3.80
2022-11-05T12:05:59.284Z,3.40
2022-11-05T12:06:59.192Z,3.70
2022-11-05T12:07:59.172Z,3.40
2022-11-05T12:09:06.240Z,3.80
2022-11-05T12:10:00.179Z,3.70
2022-11-05T12:10:59.142Z,3.30
2022-11-05T12:11:59.262Z,3.80
2022-11-05T12:12:59.155Z,3.20
2022-11-05T12:13:59.455Z,3.60
2022-11-05T12:14:59.152Z,3.50
2022-11-05T12:15:59.105Z,3.50
2022-11-05T12:17:00.010Z,3.50
2022-11-05T12:17:59.076Z,3.60
2022-11-05T12:18:59.081Z,4.10
2022-11-05T12:19:59.025Z,3.80
2022-11-05T12:20:59.041Z,3.50
2022-11-05T12:22:00.455Z,3.70
2022-11-05T12:22:58.998Z,4.10
2022-11-05T12:23:59.008Z,4.00
2022-11-05T12:24:58.967Z,3.80
2022-11-05T12:25:59.936Z,4.00
2022-11-05T12:26:58.973Z,3.60
2022-11-05T12:27:59.060Z,3.80
2022-11-05T12:29:17.903Z,3.50
2022-11-05T12:29:59.987Z,3.80
2022-11-05T12:30:58.908Z,3.80
2022-11-05T12:31:58.907Z,3.90
2022-11-05T12:32:58.960Z,3.90
2022-11-05T12:33:58.881Z,3.80
2022-11-05T12:34:59.098Z,3.70
2022-11-05T12:35:59.097Z,3.90
2022-11-05T12:36:59.026Z,4.20
2022-11-05T12:37:58.842Z,4.20
2022-11-05T12:38:58.822Z,3.90
2022-11-05T12:39:58.890Z,3.80
2022-11-05T12:40:58.833Z,3.80
2022-11-05T12:41:58.894Z,4.30
2022-11-05T12:42:59.175Z,3.80
2022-11-05T12:43:58.953Z,3.80
2022-11-05T12:44:58.756Z,3.80
2022-11-05T12:45:58.732Z,4.10
2022-11-05T12:46:58.735Z,3.80
2022-11-05T12:47:58.738Z,4.00
2022-11-05T12:48:59.021Z,4.10
2022-11-05T12:49:58.710Z,3.70
2022-11-05T12:50:58.694Z,3.80
2022-11-05T12:51:58.695Z,4.10
2022-11-05T12:52:58.656Z,3.30
2022-11-05T12:53:58.673Z,4.20
2022-11-05T12:54:58.666Z,3.80
2022-11-05T12:55:58.863Z,4.10
2022-11-05T12:56:58.619Z,3.80
2022-11-05T12:57:58.595Z,3.70
2022-11-05T12:58:58.604Z,4.10
2022-11-05T12:59:58.593Z,3.40
2022-11-05T13:00:58.786Z,3.50
2022-11-05T13:01:58.647Z,3.50
2022-11-05T13:02:58.558Z,3.80
2022-11-05T13:03:58.587Z,3.40
2022-11-05T13:05:00.030Z,3.40
2022-11-05T13:06:04.525Z,3.60
2022-11-05T13:06:59.506Z,3.60
2022-11-05T13:07:58.496Z,3.30
2022-11-05T13:08:58.485Z,3.60
2022-11-05T13:09:58.468Z,2.80
2022-11-05T13:10:58.471Z,3.20